Time;durP1;ratioP1;P1;durP2;ratioP2;P2;SDS_P1;SDS_P2;PMS_P1;PMS_P2;Temp;Humidity;BMP_temperature;BMP_pressure;BME280_temperature;BME280_humidity;BME280_pressure;Samples;Min_cycle;Max_cycle;Signal;HPM_P1;HPM_P2
2021/01/23 00:01:48;;;;;;;23.33;12.02;;;;;;;0.85;100.00;99205.31;5062435;28;20361;-69
2021/01/23 00:04:14;;;;;;;25.10;13.15;;;;;;;0.90;100.00;99201.53;5065143;28;20425;-70
2021/01/23 00:06:39;;;;;;;26.08;13.57;;;;;;;0.86;100.00;99207.03;5071114;28;20081;-69
2021/01/23 00:09:05;;;;;;;28.33;12.68;;;;;;;0.91;100.00;99197.97;5071853;28;20024;-69
2021/01/23 00:11:30;;;;;;;22.90;12.70;;;;;;;0.94;100.00;99199.56;5066582;28;20109;-69
2021/01/23 00:13:55;;;;;;;28.52;13.32;;;;;;;0.96;100.00;99203.88;5102588;27;20060;-69
2021/01/23 00:16:21;;;;;;;33.03;13.10;;;;;;;0.99;100.00;99208.16;5071372;28;20036;-69
2021/01/23 00:18:46;;;;;;;34.45;13.10;;;;;;;0.95;100.00;99207.44;5066413;28;20024;-69
2021/01/23 00:21:12;;;;;;;29.67;12.93;;;;;;;0.93;100.00;99204.00;5079510;28;20371;-69
2021/01/23 00:23:37;;;;;;;26.83;12.35;;;;;;;0.93;100.00;99208.44;5074037;28;20053;-69
2021/01/23 00:26:02;;;;;;;23.25;12.15;;;;;;;0.90;100.00;99203.31;5067707;28;20024;-69
2021/01/23 00:28:28;;;;;;;26.08;11.55;;;;;;;0.90;100.00;99201.53;5070949;28;20425;-69
2021/01/23 00:30:53;;;;;;;25.67;12.90;;;;;;;0.89;100.00;99206.88;5067904;28;20113;-69
2021/01/23 00:33:19;;;;;;;26.63;12.45;;;;;;;0.88;100.00;99199.88;5063973;28;20622;-69
2021/01/23 00:35:44;;;;;;;24.77;12.93;;;;;;;0.88;100.00;99203.38;5062865;28;20038;-69
2021/01/23 00:38:09;;;;;;;25.40;12.73;;;;;;;0.88;100.00;99199.88;5068364;28;20032;-69
2021/01/23 00:40:35;;;;;;;26.10;12.43;;;;;;;0.97;100.00;99210.00;5059892;28;20040;-69
2021/01/23 00:43:00;;;;;;;27.15;12.43;;;;;;;0.93;100.00;99206.63;5061177;28;20048;-69
2021/01/23 00:45:29;;;;;;;34.45;12.88;;;;;;;0.98;100.00;99206.44;5067631;28;20040;-69
2021/01/23 00:47:54;;;;;;;31.63;12.77;;;;;;;0.98;100.00;99209.09;5064281;28;20371;-69
2021/01/23 00:50:20;;;;;;;31.45;13.50;;;;;;;1.01;100.00;99201.00;5073322;28;20036;-69
2021/01/23 00:52:45;;;;;;;26.80;13.60;;;;;;;0.99;100.00;99210.78;5070901;28;20464;-69
2021/01/23 00:55:11;;;;;;;39.35;15.40;;;;;;;1.11;100.00;99207.53;5088958;28;20037;-69
2021/01/23 00:57:39;;;;;;;30.20;13.15;;;;;;;1.41;100.00;99206.00;5099155;28;20029;-69
2021/01/23 01:00:07;;;;;;;33.15;13.68;;;;;;;1.40;100.00;99204.28;5063366;28;20071;-69
2021/01/23 01:02:37;;;;;;;29.13;13.45;;;;;;;1.36;100.00;99208.00;5093323;28;20028;-69
2021/01/23 01:05:05;;;;;;;28.45;12.75;;;;;;;1.44;100.00;99208.47;5071451;28;20035;-69
2021/01/23 01:07:30;;;;;;;29.73;13.63;;;;;;;1.49;100.00;99214.38;5074408;28;20021;-69
2021/01/23 01:09:56;;;;;;;32.47;12.55;;;;;;;1.47;100.00;99210.97;5074555;28;20035;-69
2021/01/23 01:12:21;;;;;;;25.90;11.73;;;;;;;1.42;100.00;99205.03;5070696;28;20387;-69
2021/01/23 01:14:47;;;;;;;32.28;14.40;;;;;;;1.45;100.00;99210.19;5075377;28;20033;-69
2021/01/23 01:17:13;;;;;;;30.23;13.18;;;;;;;1.59;100.00;99214.75;5091549;28;20039;-69
2021/01/23 01:19:38;;;;;;;28.50;12.60;;;;;;;1.53;100.00;99207.16;5088758;28;20032;-69
2021/01/23 01:22:04;;;;;;;36.25;14.55;;;;;;;1.48;100.00;99212.66;5072558;28;20206;-69
2021/01/23 01:24:29;;;;;;;22.73;12.23;;;;;;;1.50;100.00;99205.50;5071020;28;20483;-69
2021/01/23 01:26:55;;;;;;;31.23;12.23;;;;;;;1.48;100.00;99210.00;5077597;28;20040;-69
2021/01/23 01:29:20;;;;;;;23.02;12.45;;;;;;;1.56;100.00;99204.34;5069423;28;20088;-69
2021/01/23 01:31:45;;;;;;;25.77;12.38;;;;;;;1.50;100.00;99209.94;5069004;28;20111;-69
2021/01/23 01:34:11;;;;;;;29.63;12.35;;;;;;;1.48;100.00;99211.81;5068098;28;20036;-69
2021/01/23 01:36:36;;;;;;;29.25;12.35;;;;;;;1.44;100.00;99200.53;5064151;28;20529;-69
2021/01/23 01:39:02;;;;;;;24.95;12.35;;;;;;;1.42;100.00;99199.75;5061604;28;20028;-69
2021/01/23 01:41:27;;;;;;;30.27;12.75;;;;;;;1.40;100.00;99204.28;5066228;28;20047;-69
2021/01/23 01:43:53;;;;;;;26.77;11.70;;;;;;;1.39;100.00;99205.22;5069206;28;20032;-69
2021/01/23 01:46:18;;;;;;;19.92;10.68;;;;;;;1.42;100.00;99204.22;5079636;28;20521;-69
2021/01/23 01:48:48;;;;;;;24.27;11.70;;;;;;;1.39;100.00;99199.91;5068838;28;20032;-69
2021/01/23 01:51:15;;;;;;;35.25;12.52;;;;;;;1.36;100.00;99202.69;5080499;28;20097;-69
2021/01/23 01:53:42;;;;;;;21.83;11.82;;;;;;;1.32;100.00;99203.81;5086140;28;20381;-69
2021/01/23 01:56:07;;;;;;;24.30;11.18;;;;;;;1.31;100.00;99196.81;5065401;28;20048;-68
2021/01/23 01:58:33;;;;;;;22.10;11.65;;;;;;;1.32;100.00;99206.44;5070632;28;20036;-69
2021/01/23 02:00:58;;;;;;;25.88;11.27;;;;;;;1.30;100.00;99203.00;5065579;28;20036;-69
2021/01/23 02:03:55;;;;;;;21.75;10.70;;;;;;;1.37;100.00;99204.41;5068823;28;20044;-69
2021/01/23 02:06:25;;;;;;;20.60;10.50;;;;;;;1.45;100.00;99201.38;5075778;28;20069;-69
2021/01/23 02:09:03;;;;;;;21.98;9.68;;;;;;;1.44;100.00;99197.88;5069102;28;20040;-69
2021/01/23 02:11:46;;;;;;;27.83;10.48;;;;;;;1.57;100.00;99196.31;5064645;28;20119;-69
2021/01/23 02:14:27;;;;;;;29.98;10.65;;;;;;;1.51;100.00;99198.44;5064707;28;20503;-69
2021/01/23 02:16:54;;;;;;;22.45;10.40;;;;;;;1.47;100.00;99197.75;5060949;28;20085;-69
2021/01/23 02:19:38;;;;;;;24.73;10.90;;;;;;;1.43;100.00;99198.81;5066317;28;20037;-69
2021/01/23 02:22:41;;;;;;;23.70;9.65;;;;;;;1.38;100.00;99190.28;5068406;28;20044;-69
2021/01/23 02:25:07;;;;;;;29.92;11.02;;;;;;;1.34;100.00;99204.59;5067087;28;20056;-69
2021/01/23 02:27:42;;;;;;;24.23;9.45;;;;;;;1.30;100.00;99194.25;5066437;28;20037;-69
2021/01/23 02:30:18;;;;;;;21.98;9.48;;;;;;;1.26;100.00;99206.75;5057371;28;20457;-69
2021/01/23 02:32:45;;;;;;;23.60;10.52;;;;;;;1.22;100.00;99210.50;5074301;28;20029;-69
2021/01/23 02:35:12;;;;;;;26.23;9.52;;;;;;;1.21;100.00;99198.22;5066875;28;20037;-69
2021/01/23 02:37:40;;;;;;;20.08;9.35;;;;;;;1.19;100.00;99208.00;5073206;28;20489;-69
2021/01/23 02:40:07;;;;;;;30.90;10.95;;;;;;;1.18;100.00;99203.63;5067665;28;20089;-69
2021/01/23 02:42:32;;;;;;;27.52;9.80;;;;;;;1.25;100.00;99205.03;5068269;28;20036;-69
2021/01/23 02:44:58;;;;;;;33.75;10.27;;;;;;;1.18;100.00;99203.63;5063996;28;20447;-69
2021/01/23 02:47:23;;;;;;;21.20;9.00;;;;;;;1.16;100.00;99200.25;5071271;28;20036;-69
2021/01/23 02:49:49;;;;;;;24.05;9.63;;;;;;;1.42;100.00;99199.75;5064173;28;20093;-69
2021/01/23 02:52:33;;;;;;;22.85;8.23;;;;;;;1.53;100.00;99197.44;5070579;28;20028;-69
2021/01/23 02:55:07;;;;;;;21.70;8.57;;;;;;;1.56;100.00;99191.97;5090073;28;20542;-68
2021/01/23 02:57:33;;;;;;;27.23;8.55;;;;;;;1.64;100.00;99191.56;5063533;28;20578;-69
2021/01/23 03:00:05;;;;;;;22.58;8.65;;;;;;;1.66;100.00;99194.16;5068826;28;20033;-68
2021/01/23 03:02:32;;;;;;;25.13;9.53;;;;;;;1.53;100.00;99204.50;5068792;28;20029;-69
2021/01/23 03:04:59;;;;;;;18.40;7.85;;;;;;;1.53;100.00;99197.44;5071075;28;20036;-69
2021/01/23 03:07:25;;;;;;;17.33;7.35;;;;;;;1.47;100.00;99194.25;5069377;28;20038;-68
2021/01/23 03:09:50;;;;;;;25.88;8.45;;;;;;;1.42;100.00;99189.16;5064930;28;20031;-68
2021/01/23 03:12:15;;;;;;;15.02;7.85;;;;;;;1.46;100.00;99187.25;5065791;28;20032;-69
2021/01/23 03:14:41;;;;;;;14.88;7.70;;;;;;;1.51;100.00;99180.78;5084206;28;20406;-69
2021/01/23 03:17:06;;;;;;;18.73;7.60;;;;;;;1.57;100.00;99180.47;5073857;28;20042;-68
2021/01/23 03:19:32;;;;;;;26.38;8.20;;;;;;;1.49;100.00;99185.28;5086027;28;20116;-68
2021/01/23 03:21:58;;;;;;;17.77;7.80;;;;;;;1.36;100.00;99188.66;5067947;28;20040;-69
2021/01/23 03:24:23;;;;;;;13.63;7.53;;;;;;;1.26;100.00;99190.91;5074308;28;20166;-69
2021/01/23 03:26:49;;;;;;;14.68;7.68;;;;;;;1.18;100.00;99179.84;5065943;28;20059;-69
2021/01/23 03:29:15;;;;;;;16.60;7.25;;;;;;;1.19;100.00;99179.78;5073985;28;20364;-68
2021/01/23 03:31:40;;;;;;;16.48;8.02;;;;;;;1.23;100.00;99175.22;5063213;28;20024;-68
2021/01/23 03:34:06;;;;;;;22.50;8.15;;;;;;;1.19;100.00;99173.66;5082553;28;20043;-69
2021/01/23 03:36:33;;;;;;;13.73;7.20;;;;;;;1.13;100.00;99174.81;5068990;28;20029;-69
2021/01/23 03:38:58;;;;;;;19.02;8.00;;;;;;;1.09;100.00;99173.28;5067742;28;20044;-68
2021/01/23 03:41:24;;;;;;;17.60;7.32;;;;;;;1.07;100.00;99166.34;5071768;28;20040;-69
2021/01/23 03:43:49;;;;;;;26.52;7.75;;;;;;;1.08;100.00;99170.69;5071176;28;20035;-69
2021/01/23 03:46:15;;;;;;;17.17;7.35;;;;;;;1.08;100.00;99160.13;5060105;28;20090;-68
2021/01/23 03:48:41;;;;;;;19.40;7.60;;;;;;;1.07;100.00;99172.47;5058870;28;20043;-69
2021/01/23 03:51:07;;;;;;;17.55;7.35;;;;;;;1.04;100.00;99164.72;5069114;28;20025;-69
2021/01/23 03:53:32;;;;;;;27.15;7.50;;;;;;;1.01;100.00;99161.38;5066847;28;20530;-69
2021/01/23 03:55:58;;;;;;;13.95;6.75;;;;;;;0.98;100.00;99156.25;5070296;28;20033;-68
2021/01/23 03:58:24;;;;;;;17.77;6.60;;;;;;;1.00;100.00;99162.28;5073289;28;20038;-69
2021/01/23 04:00:49;;;;;;;26.00;7.53;;;;;;;0.99;100.00;99156.16;5064004;28;20044;-68
2021/01/23 04:03:14;;;;;;;14.85;7.35;;;;;;;0.93;100.00;99150.31;5067981;28;20039;-68
2021/01/23 04:05:40;;;;;;;15.13;7.18;;;;;;;0.89;100.00;99144.34;5069951;28;20107;-68
2021/01/23 04:08:06;;;;;;;17.52;6.95;;;;;;;0.88;100.00;99149.69;5055841;28;20025;-69
2021/01/23 04:10:32;;;;;;;19.73;7.07;;;;;;;0.85;100.00;99144.59;5064176;28;20040;-69
2021/01/23 04:12:57;;;;;;;17.00;7.13;;;;;;;0.84;100.00;99132.31;5067899;28;20024;-68
2021/01/23 04:15:23;;;;;;;16.17;6.45;;;;;;;0.80;100.00;99136.91;5076559;28;20602;-69
2021/01/23 04:17:49;;;;;;;17.98;6.97;;;;;;;0.78;100.00;99139.59;5067069;28;20043;-69
2021/01/23 04:20:15;;;;;;;19.75;7.15;;;;;;;0.84;100.00;99134.94;5071939;28;20035;-68
2021/01/23 04:22:40;;;;;;;18.83;7.57;;;;;;;0.85;100.00;99148.09;5069379;28;20066;-69
2021/01/23 04:25:06;;;;;;;16.23;7.55;;;;;;;0.87;100.00;99135.63;5066668;28;20360;-68
2021/01/23 04:27:32;;;;;;;16.45;7.22;;;;;;;1.21;100.00;99138.28;5071719;28;20032;-68
2021/01/23 04:29:58;;;;;;;18.30;7.05;;;;;;;1.40;100.00;99140.84;5073976;28;20093;-69
2021/01/23 04:32:23;;;;;;;22.35;8.98;;;;;;;1.43;100.00;99140.66;5074899;28;20044;-68
2021/01/23 04:34:48;;;;;;;19.15;8.00;;;;;;;1.51;100.00;99142.91;5066849;28;20024;-68
2021/01/23 04:37:14;;;;;;;17.25;8.15;;;;;;;1.60;100.00;99140.63;5074057;28;20174;-68
2021/01/23 04:39:39;;;;;;;16.13;8.15;;;;;;;1.57;100.00;99138.16;5085986;28;20040;-68
2021/01/23 04:42:09;;;;;;;18.63;7.68;;;;;;;1.71;100.00;99133.94;5072929;28;20039;-68
2021/01/23 04:44:36;;;;;;;19.60;7.90;;;;;;;1.71;100.00;99131.28;5061135;28;20143;-68
2021/01/23 04:47:02;;;;;;;18.40;8.32;;;;;;;1.80;100.00;99133.41;5063283;28;20123;-68
2021/01/23 04:49:31;;;;;;;18.52;7.60;;;;;;;1.87;100.00;99122.44;5063788;28;20060;-69
2021/01/23 04:51:58;;;;;;;20.10;8.07;;;;;;;1.80;100.00;99133.41;5070499;28;20048;-68
2021/01/23 04:54:24;;;;;;;14.18;7.30;;;;;;;1.81;100.00;99132.47;5072339;28;20106;-68
2021/01/23 04:56:50;;;;;;;15.18;6.78;;;;;;;1.91;100.00;99131.06;5065243;28;20037;-68
2021/01/23 04:59:16;;;;;;;20.42;7.43;;;;;;;1.97;100.00;99133.38;5066004;28;20539;-69
2021/01/23 05:01:42;;;;;;;16.00;6.35;;;;;;;1.90;100.00;99130.22;5075400;28;20020;-69
2021/01/23 05:04:07;;;;;;;16.58;7.35;;;;;;;1.86;100.00;99125.16;5068617;28;20157;-68
2021/01/23 05:06:33;;;;;;;19.77;6.75;;;;;;;2.04;100.00;99126.78;5067554;28;20631;-69
2021/01/23 05:08:58;;;;;;;19.90;7.70;;;;;;;2.09;100.00;99108.91;5069770;28;20044;-69
2021/01/23 05:11:44;;;;;;;18.90;7.13;;;;;;;2.02;100.00;99107.53;5073890;28;20032;-70
2021/01/23 05:14:13;;;;;;;19.48;6.95;;;;;;;1.90;100.00;99113.47;5070225;28;20032;-69
2021/01/23 05:16:38;;;;;;;15.73;7.38;;;;;;;1.92;100.00;99116.88;5074715;28;20517;-69
2021/01/23 05:19:04;;;;;;;22.17;7.70;;;;;;;1.93;100.00;99108.00;5072458;28;20064;-69
2021/01/23 05:21:31;;;;;;;14.32;7.25;;;;;;;2.00;100.00;99102.31;5075607;28;20058;-69
2021/01/23 05:24:08;;;;;;;20.48;7.28;;;;;;;1.99;100.00;99099.72;5072422;28;20025;-69
2021/01/23 05:26:35;;;;;;;15.77;7.88;;;;;;;1.89;100.00;99107.34;5065957;28;20068;-70
2021/01/23 05:29:14;;;;;;;17.38;7.05;;;;;;;1.95;100.00;99095.56;5072326;28;20033;-69
2021/01/23 05:31:41;;;;;;;15.45;7.70;;;;;;;2.07;100.00;99089.59;5086304;28;20036;-69
2021/01/23 05:34:29;;;;;;;16.10;7.55;;;;;;;2.05;100.00;99096.75;5070585;28;20681;-69
2021/01/23 05:36:55;;;;;;;20.20;7.88;;;;;;;2.06;100.00;99093.16;5087910;28;20099;-69
2021/01/23 05:39:21;;;;;;;18.40;7.68;;;;;;;2.04;100.00;99102.97;5076669;28;20036;-69
2021/01/23 05:42:02;;;;;;;19.67;8.05;;;;;;;2.12;100.00;99099.91;5080824;28;20435;-69
2021/01/23 05:44:28;;;;;;;18.40;7.22;;;;;;;1.96;100.00;99108.72;5068530;28;20479;-69
2021/01/23 05:46:53;;;;;;;21.42;8.10;;;;;;;2.02;100.00;99103.09;5070924;28;20038;-69
2021/01/23 05:49:19;;;;;;;17.92;7.38;;;;;;;2.09;100.00;99103.59;5070522;28;20024;-69
2021/01/23 05:51:45;;;;;;;20.50;7.53;;;;;;;2.20;100.00;99111.78;5068246;28;20037;-69
2021/01/23 05:54:10;;;;;;;18.83;7.38;;;;;;;2.23;100.00;99114.25;5058894;28;20055;-69
2021/01/23 05:56:36;;;;;;;17.60;7.38;;;;;;;2.29;100.00;99111.25;5078784;28;20090;-69
2021/01/23 05:59:03;;;;;;;16.60;7.13;;;;;;;2.29;100.00;99111.25;5068753;28;20083;-69
2021/01/23 06:01:29;;;;;;;16.33;7.90;;;;;;;2.38;100.00;99105.47;5076906;28;20051;-69
2021/01/23 06:03:58;;;;;;;15.60;7.40;;;;;;;2.32;100.00;99116.41;5085469;28;20041;-69
2021/01/23 06:06:23;;;;;;;16.30;7.93;;;;;;;2.26;100.00;99110.59;5073253;28;20123;-69
2021/01/23 06:08:51;;;;;;;20.10;7.65;;;;;;;2.27;100.00;99113.16;5073504;28;20116;-69
2021/01/23 06:11:19;;;;;;;17.58;8.48;;;;;;;2.25;100.00;99117.69;5068699;28;20025;-69
2021/01/23 06:13:51;;;;;;;21.95;8.60;;;;;;;2.20;100.00;99114.44;5063352;28;20051;-70
2021/01/23 06:16:32;;;;;;;22.10;8.35;;;;;;;2.29;100.00;99116.56;5075359;28;20036;-69
2021/01/23 06:19:26;;;;;;;22.70;8.43;;;;;;;2.33;100.00;99114.59;5062884;28;20047;-70
2021/01/23 06:21:52;;;;;;;21.15;8.68;;;;;;;2.44;100.00;99123.66;5069733;28;20167;-70
2021/01/23 06:24:41;;;;;;;20.75;8.77;;;;;;;2.44;100.00;99118.34;5069711;28;20578;-70
2021/01/23 06:27:07;;;;;;;23.13;8.35;;;;;;;2.36;100.00;99117.06;5069629;28;20483;-70
2021/01/23 06:29:37;;;;;;;18.75;9.45;;;;;;;2.34;100.00;99113.66;5068093;28;20086;-70
2021/01/23 06:32:11;;;;;;;19.48;8.43;;;;;;;2.43;100.00;99116.63;5067723;28;20116;-70
2021/01/23 06:34:44;;;;;;;19.10;8.13;;;;;;;2.41;100.00;99113.22;5067779;28;20060;-70
2021/01/23 06:37:33;;;;;;;22.98;9.57;;;;;;;2.45;100.00;99116.56;5064989;28;20039;-70
2021/01/23 06:39:59;;;;;;;18.48;8.68;;;;;;;2.42;100.00;99122.88;5069412;28;20036;-70
2021/01/23 06:42:25;;;;;;;21.20;9.13;;;;;;;2.38;100.00;99124.00;5066377;28;20047;-70
2021/01/23 06:44:51;;;;;;;34.67;10.05;;;;;;;2.46;100.00;99122.72;5065250;28;20125;-69
2021/01/23 06:47:17;;;;;;;19.65;9.13;;;;;;;2.51;100.00;99121.50;5069144;28;20112;-70
2021/01/23 06:49:43;;;;;;;23.38;8.35;;;;;;;2.55;100.00;99122.16;5064267;28;20036;-70
2021/01/23 06:52:09;;;;;;;17.95;8.73;;;;;;;2.58;100.00;99128.16;5069515;28;20043;-70
2021/01/23 06:54:35;;;;;;;23.83;9.18;;;;;;;2.60;100.00;99120.09;5074393;28;20136;-70
2021/01/23 06:57:06;;;;;;;22.58;8.65;;;;;;;2.64;100.00;99124.31;5085339;28;20044;-70
2021/01/23 06:59:37;;;;;;;23.48;9.93;;;;;;;2.67;100.00;99126.75;5068922;28;20064;-70
2021/01/23 07:02:04;;;;;;;19.42;9.70;;;;;;;2.77;100.00;99127.97;5085325;28;20032;-70
2021/01/23 07:04:32;;;;;;;21.35;9.63;;;;;;;2.95;100.00;99121.59;5073137;28;20509;-70
2021/01/23 07:06:59;;;;;;;23.58;9.40;;;;;;;2.90;100.00;99130.75;5066140;28;20036;-70
2021/01/23 07:10:05;;;;;;;19.85;9.45;;;;;;;3.03;100.00;99124.63;5085718;28;20503;-70
2021/01/23 07:12:37;;;;;;;22.70;8.18;;;;;;;2.92;100.00;99132.34;5009463;28;20124;-69
2021/01/23 07:15:07;;;;;;;19.83;8.55;;;;;;;2.82;100.00;99133.84;5025201;28;20169;-69
2021/01/23 07:17:36;;;;;;;18.50;8.30;;;;;;;2.86;100.00;99127.41;5052958;28;20108;-70
2021/01/23 07:20:13;;;;;;;20.48;9.25;;;;;;;2.91;100.00;99130.63;5070560;28;20039;-70
2021/01/23 07:22:39;;;;;;;21.08;10.18;;;;;;;2.78;100.00;99125.19;5070910;28;20040;-70
2021/01/23 07:25:10;;;;;;;22.15;10.05;;;;;;;2.68;100.00;99128.47;5060283;28;20044;-70
2021/01/23 07:27:37;;;;;;;20.50;9.45;;;;;;;2.73;100.00;99126.41;5084557;28;20036;-70
2021/01/23 07:30:16;;;;;;;22.02;9.75;;;;;;;2.76;100.00;99131.53;5083322;28;20016;-69
2021/01/23 07:32:43;;;;;;;21.65;8.57;;;;;;;2.79;100.00;99129.56;5068611;28;20032;-69
2021/01/23 07:35:10;;;;;;;20.83;9.00;;;;;;;2.75;100.00;99140.44;5066971;28;20040;-69
2021/01/23 07:37:45;;;;;;;23.27;8.88;;;;;;;2.64;100.00;99137.56;5066065;28;20087;-69
2021/01/23 07:40:19;;;;;;;24.48;8.95;;;;;;;2.65;100.00;99136.63;5084574;28;20041;-69
2021/01/23 07:42:45;;;;;;;17.60;8.35;;;;;;;2.60;100.00;99131.56;5070102;28;20041;-69
2021/01/23 07:45:12;;;;;;;21.08;9.05;;;;;;;2.66;100.00;99135.66;5097700;28;20039;-69
2021/01/23 07:47:39;;;;;;;25.10;10.20;;;;;;;2.74;100.00;99136.06;5066442;28;20054;-69
2021/01/23 07:50:12;;;;;;;19.98;8.63;;;;;;;2.60;100.00;99136.00;5068089;28;20123;-69
2021/01/23 07:52:40;;;;;;;18.08;8.95;;;;;;;2.75;100.00;99140.44;5064047;28;20047;-69
2021/01/23 07:55:07;;;;;;;27.85;10.68;;;;;;;2.66;100.00;99141.81;5063076;28;20044;-69
2021/01/23 07:57:33;;;;;;;27.80;9.63;;;;;;;2.74;100.00;99138.72;5069095;28;20033;-69
2021/01/23 07:59:59;;;;;;;22.52;9.82;;;;;;;2.69;100.00;99131.03;5061812;28;20036;-69
2021/01/23 08:02:25;;;;;;;23.38;9.25;;;;;;;2.68;100.00;99128.47;5069116;28;20036;-69
2021/01/23 08:04:54;;;;;;;18.17;9.20;;;;;;;2.62;100.00;99131.47;5059981;28;20099;-69
2021/01/23 08:07:25;;;;;;;25.70;10.68;;;;;;;2.54;100.00;99141.63;5066504;28;20093;-69
2021/01/23 08:10:14;;;;;;;20.77;10.23;;;;;;;2.63;100.00;99138.47;5074180;28;20029;-69
2021/01/23 08:12:59;;;;;;;18.30;8.93;;;;;;;2.61;100.00;99140.34;5066182;28;20032;-69
2021/01/23 08:15:28;;;;;;;19.13;9.23;;;;;;;2.74;100.00;99134.28;5072226;28;20047;-69
2021/01/23 08:17:55;;;;;;;18.48;9.10;;;;;;;2.78;100.00;99140.25;5055295;28;20617;-69
2021/01/23 08:20:34;;;;;;;22.55;9.57;;;;;;;2.78;100.00;99134.94;5066846;28;20054;-69
2021/01/23 08:23:06;;;;;;;22.23;9.88;;;;;;;2.73;100.00;99135.22;5068321;28;20679;-69
2021/01/23 08:25:38;;;;;;;22.45;9.68;;;;;;;2.70;100.00;99135.41;5077366;28;20060;-69
2021/01/23 08:28:05;;;;;;;18.02;9.73;;;;;;;2.69;100.00;99131.03;5070161;28;20908;-69
2021/01/23 08:30:32;;;;;;;27.25;11.18;;;;;;;2.68;100.00;99134.63;5065005;28;20032;-69
2021/01/23 08:32:57;;;;;;;24.00;10.50;;;;;;;2.60;100.00;99133.34;5068412;28;20024;-69
2021/01/23 08:35:23;;;;;;;23.80;10.98;;;;;;;2.66;100.00;99130.34;5064833;28;20029;-69
2021/01/23 08:37:50;;;;;;;29.42;10.18;;;;;;;2.70;100.00;99142.50;5069506;28;20055;-70
2021/01/23 08:40:20;;;;;;;31.77;11.60;;;;;;;2.63;100.00;99141.13;5066938;28;20040;-69
2021/01/23 08:42:46;;;;;;;26.95;10.80;;;;;;;2.86;100.00;99138.00;5064176;28;20032;-69
2021/01/23 08:45:12;;;;;;;32.10;10.65;;;;;;;2.81;100.00;99135.63;5063366;28;20039;-69
2021/01/23 08:47:38;;;;;;;19.45;10.00;;;;;;;2.81;100.00;99135.63;5063926;28;20107;-69
2021/01/23 08:50:04;;;;;;;27.15;10.05;;;;;;;2.91;100.00;99135.94;5068833;28;20521;-69
2021/01/23 08:52:29;;;;;;;20.33;9.80;;;;;;;2.91;100.00;99135.94;5066190;28;20461;-70
2021/01/23 08:54:55;;;;;;;29.35;10.23;;;;;;;2.88;100.00;99124.69;5066280;28;20068;-70
2021/01/23 08:57:20;;;;;;;19.65;10.02;;;;;;;3.05;100.00;99127.19;5064872;28;20047;-69
2021/01/23 08:59:45;;;;;;;21.25;10.63;;;;;;;3.10;100.00;99122.47;5066754;28;20068;-70
2021/01/23 09:02:14;;;;;;;25.98;10.27;;;;;;;3.07;100.00;99131.47;5064593;28;20097;-70
2021/01/23 09:04:40;;;;;;;26.27;10.30;;;;;;;3.03;100.00;99124.63;5075317;28;20040;-71
2021/01/23 09:07:06;;;;;;;22.77;10.30;;;;;;;3.04;100.00;99130.78;5072362;28;20033;-70
2021/01/23 09:09:31;;;;;;;25.45;10.25;;;;;;;3.02;100.00;99127.38;5068876;28;20646;-70
2021/01/23 09:11:56;;;;;;;20.75;10.18;;;;;;;3.03;100.00;99132.56;5074514;28;20028;-70
2021/01/23 09:14:22;;;;;;;32.30;13.38;;;;;;;3.02;100.00;99130.03;5076259;28;20036;-70
2021/01/23 09:16:47;;;;;;;30.58;13.98;;;;;;;3.12;100.00;99132.03;5072828;28;20078;-70
2021/01/23 09:19:12;;;;;;;33.90;15.35;;;;;;;3.12;100.00;99126.75;5081337;28;20471;-70
2021/01/23 09:21:39;;;;;;;26.35;11.50;;;;;;;3.14;100.00;99122.22;5083311;28;20044;-70
2021/01/23 09:24:07;;;;;;;30.40;12.38;;;;;;;3.17;100.00;99122.00;5077034;28;20040;-70
2021/01/23 09:26:32;;;;;;;30.00;12.63;;;;;;;3.17;100.00;99126.47;5073771;28;20035;-70
2021/01/23 09:28:58;;;;;;;22.42;10.70;;;;;;;3.22;100.00;99119.94;5075403;28;20028;-70
2021/01/23 09:31:23;;;;;;;23.13;10.55;;;;;;;3.35;100.00;99119.19;5082159;28;20040;-70
2021/01/23 09:33:50;;;;;;;36.97;12.80;;;;;;;3.43;100.00;99116.94;5085584;28;20044;-70
2021/01/23 09:36:16;;;;;;;25.95;12.52;;;;;;;3.48;100.00;99120.16;5082204;28;20508;-70
2021/01/23 09:38:42;;;;;;;21.38;9.93;;;;;;;3.52;100.00;99125.19;5077048;28;20566;-70
2021/01/23 09:41:09;;;;;;;21.02;9.57;;;;;;;3.55;100.00;99126.81;5067462;28;20128;-70
2021/01/23 09:43:35;;;;;;;23.35;9.80;;;;;;;3.59;100.00;99136.28;5070793;28;20384;-70
2021/01/23 09:46:00;;;;;;;22.83;9.90;;;;;;;3.52;100.00;99129.63;5070979;28;20046;-70
2021/01/23 09:48:27;;;;;;;22.17;8.60;;;;;;;3.67;100.00;99126.06;5068445;28;20261;-70
2021/01/23 09:50:53;;;;;;;22.40;9.23;;;;;;;3.71;100.00;99124.06;5069895;28;20433;-70
2021/01/23 09:53:18;;;;;;;18.23;10.20;;;;;;;3.73;100.00;99120.38;5071477;28;20543;-70
2021/01/23 09:55:43;;;;;;;20.02;9.13;;;;;;;3.86;100.00;99123.97;5066637;28;20028;-70
2021/01/23 09:58:09;;;;;;;21.80;9.68;;;;;;;3.90;100.00;99128.13;5075860;28;20047;-70
2021/01/23 10:00:34;;;;;;;19.75;9.07;;;;;;;4.06;100.00;99123.59;5073354;28;20139;-70
2021/01/23 10:02:59;;;;;;;20.60;9.27;;;;;;;4.01;100.00;99124.81;5070743;28;20028;-70
2021/01/23 10:05:25;;;;;;;16.88;9.20;;;;;;;4.03;100.00;99126.41;5072531;28;20407;-70
2021/01/23 10:07:51;;;;;;;20.83;8.30;;;;;;;4.22;100.00;99126.09;5071694;28;20904;-70
2021/01/23 10:10:16;;;;;;;15.18;7.43;;;;;;;4.33;100.00;99125.41;5067725;28;20033;-70
2021/01/23 10:12:42;;;;;;;18.95;7.78;;;;;;;4.33;100.00;99120.09;5068301;28;20043;-70
2021/01/23 10:15:07;;;;;;;16.27;7.63;;;;;;;4.44;100.00;99112.31;5073342;28;20040;-70
2021/01/23 10:17:33;;;;;;;15.85;7.18;;;;;;;4.53;100.00;99121.47;5068733;28;20043;-70
2021/01/23 10:19:58;;;;;;;14.35;7.45;;;;;;;4.56;100.00;99111.50;5061682;28;20064;-70
2021/01/23 10:22:24;;;;;;;14.82;7.65;;;;;;;4.52;100.00;99115.31;5072841;28;20115;-70
2021/01/23 10:24:49;;;;;;;17.42;7.35;;;;;;;4.53;100.00;99116.16;5067315;28;20063;-70
2021/01/23 10:27:15;;;;;;;15.18;8.02;;;;;;;4.64;100.00;99108.34;5073653;28;20118;-70
2021/01/23 10:29:40;;;;;;;17.88;7.72;;;;;;;4.68;100.00;99101.88;5067985;28;20093;-70
2021/01/23 10:32:05;;;;;;;20.55;8.07;;;;;;;4.77;100.00;99094.13;5069145;28;20030;-70
2021/01/23 10:34:31;;;;;;;18.33;8.13;;;;;;;4.95;100.00;99091.19;5068354;28;20029;-70
2021/01/23 10:36:56;;;;;;;20.00;6.93;;;;;;;4.80;100.00;99093.09;5068419;28;20717;-70
2021/01/23 10:39:22;;;;;;;33.90;15.05;;;;;;;4.89;100.00;99093.31;5075012;28;20322;-70
2021/01/23 10:41:48;;;;;;;17.90;9.90;;;;;;;5.13;99.96;99106.75;5050856;28;20067;-70
2021/01/23 10:44:14;;;;;;;20.67;9.27;;;;;;;5.10;100.00;99100.81;5087320;28;20040;-70
2021/01/23 10:46:39;;;;;;;24.08;9.52;;;;;;;5.06;100.00;99099.34;5074984;28;20036;-70
2021/01/23 10:49:06;;;;;;;25.77;11.00;;;;;;;5.17;100.00;99091.47;5071148;28;20032;-70
2021/01/23 10:51:31;;;;;;;20.35;8.85;;;;;;;5.22;100.00;99097.31;5075388;28;20456;-70
2021/01/23 10:53:56;;;;;;;18.45;8.93;;;;;;;5.25;100.00;99084.66;5071302;28;20064;-70
2021/01/23 10:56:22;;;;;;;22.33;8.63;;;;;;;5.31;100.00;99090.53;5070630;28;20033;-70
2021/01/23 10:58:47;;;;;;;14.45;8.05;;;;;;;5.48;100.00;99083.09;5072151;28;20037;-70
2021/01/23 11:01:13;;;;;;;14.45;6.47;;;;;;;5.59;97.84;99077.88;5072704;28;20407;-70
2021/01/23 11:03:38;;;;;;;19.95;7.20;;;;;;;5.75;97.37;99082.09;5077827;28;20038;-70
2021/01/23 11:06:04;;;;;;;12.32;5.78;;;;;;;5.98;95.32;99081.38;5073615;28;20495;-70
2021/01/23 11:08:30;;;;;;;13.45;5.28;;;;;;;5.95;94.07;99085.09;5077649;28;20067;-70
2021/01/23 11:10:55;;;;;;;14.60;5.65;;;;;;;6.00;94.58;99082.94;5062337;28;20032;-70
2021/01/23 11:13:22;;;;;;;12.75;5.10;;;;;;;6.01;92.79;99087.31;5069512;28;20031;-70
2021/01/23 11:15:48;;;;;;;12.27;4.85;;;;;;;6.16;89.38;99072.06;5068919;28;20036;-70
2021/01/23 11:18:13;;;;;;;11.60;4.97;;;;;;;6.14;90.07;99075.78;5068439;28;20040;-70
2021/01/23 11:20:38;;;;;;;13.88;4.80;;;;;;;6.14;90.31;99073.97;5059087;28;20078;-70
2021/01/23 11:23:04;;;;;;;8.10;4.07;;;;;;;6.28;90.74;99071.16;5063012;28;20028;-70
2021/01/23 11:25:29;;;;;;;13.05;5.20;;;;;;;6.31;92.08;99070.06;5066341;28;20431;-70